createdAt,value
2019-01-31T00:01:01.684Z,87.20
2019-01-31T00:04:39.658Z,86.80
2019-01-31T00:08:07.802Z,87.00
2019-01-31T00:11:27.643Z,86.90
2019-01-31T00:14:38.268Z,86.90
2019-01-31T00:17:34.772Z,87.20
2019-01-31T00:20:51.291Z,87.30
2019-01-31T00:24:06.823Z,88.30
2019-01-31T00:27:24.696Z,88.00
2019-01-31T00:30:43.573Z,88.50
2019-01-31T00:34:24.672Z,88.50
2019-01-31T00:37:38.728Z,87.90
2019-01-31T00:41:18.543Z,88.40
2019-01-31T00:44:41.617Z,88.50
2019-01-31T00:47:56.272Z,88.40
2019-01-31T00:50:52.659Z,88.50
2019-01-31T00:54:11.977Z,88.60
2019-01-31T00:57:51.024Z,89.00
2019-01-31T01:01:03.003Z,88.80
2019-01-31T01:04:12.527Z,88.70
2019-01-31T01:07:43.769Z,88.50
2019-01-31T01:11:24.517Z,88.30
2019-01-31T01:15:02.015Z,88.30
2019-01-31T01:18:03.275Z,88.20
2019-01-31T01:21:06.101Z,88.60
2019-01-31T01:24:41.527Z,88.50
2019-01-31T01:28:05.454Z,88.60
2019-01-31T01:31:23.638Z,88.80
2019-01-31T01:35:02.136Z,88.20
2019-01-31T01:38:23.967Z,88.20
2019-01-31T01:41:37.240Z,87.40
2019-01-31T01:45:02.613Z,87.60
2019-01-31T01:48:11.053Z,88.30
2019-01-31T01:51:12.966Z,88.60
2019-01-31T01:54:33.777Z,89.00
2019-01-31T01:57:50.467Z,88.90
2019-01-31T02:01:18.400Z,89.00
2019-01-31T02:04:44.907Z,89.30
2019-01-31T02:07:56.914Z,89.10
2019-01-31T02:11:18.535Z,88.70
2019-01-31T02:14:59.804Z,89.00
2019-01-31T02:18:20.428Z,89.50
2019-01-31T02:21:57.350Z,89.70
2019-01-31T02:25:08.769Z,89.80
2019-01-31T02:28:27.046Z,89.80
2019-01-31T02:31:59.686Z,90.20
2019-01-31T02:35:14.041Z,90.30
2019-01-31T02:38:42.658Z,90.60
2019-01-31T02:41:53.103Z,90.50
2019-01-31T02:45:19.166Z,90.60
2019-01-31T02:48:21.294Z,90.50
2019-01-31T02:51:49.248Z,90.70
2019-01-31T02:54:54.725Z,90.70
2019-01-31T02:58:20.155Z,90.90
2019-01-31T03:01:41.044Z,90.90
2019-01-31T03:04:46.395Z,90.90
2019-01-31T03:07:52.319Z,90.80
2019-01-31T03:10:48.140Z,90.80
2019-01-31T03:14:09.466Z,90.70
2019-01-31T03:17:44.316Z,90.70
2019-01-31T03:20:58.484Z,90.60
2019-01-31T03:23:56.118Z,90.40
2019-01-31T03:27:36.423Z,90.30
2019-01-31T03:30:51.161Z,90.10
2019-01-31T03:34:29.106Z,90.20
2019-01-31T03:37:56.489Z,90.60
2019-01-31T03:41:22.533Z,90.70
2019-01-31T03:44:29.194Z,91.10
2019-01-31T03:47:54.375Z,90.80
2019-01-31T03:51:31.893Z,90.90
2019-01-31T03:55:00.466Z,91.00
2019-01-31T03:58:26.054Z,91.10
2019-01-31T04:01:57.316Z,91.10
2019-01-31T04:05:02.180Z,91.20
2019-01-31T04:07:50.299Z,91.10
2019-01-31T04:10:39.053Z,90.90
2019-01-31T04:13:27.700Z,90.90
2019-01-31T04:16:15.989Z,90.90
2019-01-31T04:19:04.343Z,90.80
2019-01-31T04:21:52.564Z,90.70
2019-01-31T04:24:40.586Z,91.10
2019-01-31T04:27:28.496Z,91.00
2019-01-31T04:30:19.988Z,91.40
2019-01-31T04:33:11.421Z,91.30
2019-01-31T04:35:59.696Z,91.30
2019-01-31T04:38:59.902Z,91.30
2019-01-31T04:41:51.388Z,91.70
2019-01-31T04:44:39.551Z,91.60
2019-01-31T04:47:30.951Z,91.80
2019-01-31T04:50:19.301Z,91.80
2019-01-31T04:53:07.819Z,91.70
2019-01-31T04:55:56.495Z,91.70
2019-01-31T04:58:44.703Z,91.60
2019-01-31T05:01:36.150Z,91.40
2019-01-31T05:04:24.762Z,91.50
2019-01-31T05:07:13.107Z,91.40
2019-01-31T05:10:01.488Z,92.00
2019-01-31T05:12:49.267Z,91.60
2019-01-31T05:16:03.181Z,91.70
2019-01-31T05:18:49.615Z,91.90
2019-01-31T05:21:43.321Z,92.00
2019-01-31T05:24:32.541Z,91.80
2019-01-31T05:27:36.129Z,91.60
2019-01-31T05:30:32.316Z,91.60
2019-01-31T05:33:30.028Z,91.70
2019-01-31T05:39:27.077Z,92.00
2019-01-31T05:42:38.649Z,91.90
2019-01-31T05:45:29.079Z,91.80
2019-01-31T05:48:19.796Z,91.60
2019-01-31T05:51:11.292Z,91.90
2019-01-31T05:54:11.811Z,91.80
2019-01-31T05:57:16.382Z,91.90
2019-01-31T06:00:15.443Z,92.00
2019-01-31T06:03:03.969Z,92.30
2019-01-31T06:05:52.043Z,91.80
2019-01-31T06:08:39.918Z,92.00
2019-01-31T06:11:27.707Z,92.20
2019-01-31T06:14:15.648Z,91.90
2019-01-31T06:17:03.835Z,92.20
2019-01-31T06:19:53.562Z,92.00
2019-01-31T06:22:41.509Z,92.00
2019-01-31T06:25:29.655Z,92.10
2019-01-31T06:28:18.025Z,92.30
2019-01-31T06:31:06.039Z,92.30
2019-01-31T06:33:54.442Z,92.20
2019-01-31T06:36:42.664Z,92.40
2019-01-31T06:39:30.236Z,92.40
2019-01-31T06:42:18.408Z,92.40
2019-01-31T06:45:08.055Z,92.90
2019-01-31T06:47:56.349Z,92.90
2019-01-31T06:50:44.850Z,92.90
2019-01-31T06:53:33.015Z,92.70
2019-01-31T06:56:21.786Z,92.60
2019-01-31T06:59:10.008Z,92.40
2019-01-31T07:01:58.370Z,92.60
2019-01-31T07:04:46.525Z,92.50
2019-01-31T07:07:34.958Z,92.40
2019-01-31T07:10:25.474Z,92.20
2019-01-31T07:13:13.807Z,92.10
2019-01-31T07:16:01.809Z,92.20
2019-01-31T07:18:49.808Z,92.30
2019-01-31T07:21:37.855Z,92.50
2019-01-31T07:24:26.235Z,92.70
2019-01-31T07:27:14.733Z,93.00
2019-01-31T07:30:02.629Z,93.00
2019-01-31T07:32:50.958Z,93.20
2019-01-31T07:35:39.262Z,93.20
2019-01-31T07:38:27.325Z,93.20
2019-01-31T07:41:18.727Z,93.30
2019-01-31T07:44:06.803Z,93.10
2019-01-31T07:46:55.040Z,93.20
2019-01-31T07:49:44.474Z,93.00
2019-01-31T07:52:35.372Z,93.00
2019-01-31T07:55:23.511Z,92.90
2019-01-31T07:58:14.672Z,92.80
2019-01-31T08:01:05.545Z,92.90
2019-01-31T08:04:02.259Z,92.90
2019-01-31T08:06:44.378Z,92.90
2019-01-31T08:09:32.538Z,92.80
2019-01-31T08:12:20.509Z,93.20
2019-01-31T08:15:09.996Z,93.10
2019-01-31T08:17:57.906Z,92.80
2019-01-31T08:20:45.815Z,92.60
2019-01-31T08:23:33.624Z,92.40
2019-01-31T08:26:21.636Z,92.10
2019-01-31T08:29:09.860Z,92.00
2019-01-31T08:31:57.965Z,91.90
2019-01-31T08:34:45.807Z,91.80
2019-01-31T08:37:34.665Z,91.60
2019-01-31T08:40:22.673Z,91.50
2019-01-31T08:43:10.818Z,91.10
2019-01-31T08:45:58.839Z,91.00
2019-01-31T08:48:46.716Z,90.80
2019-01-31T08:51:34.624Z,90.70
2019-01-31T08:54:22.688Z,90.30
2019-01-31T08:57:10.870Z,90.20
2019-01-31T08:59:59.061Z,89.50
2019-01-31T09:02:47.460Z,87.20
2019-01-31T09:05:36.274Z,87.70
2019-01-31T09:08:24.158Z,87.80
2019-01-31T09:11:12.086Z,86.00
2019-01-31T09:14:00.119Z,86.30
2019-01-31T09:16:47.852Z,85.90
2019-01-31T09:19:35.749Z,85.20
2019-01-31T09:22:53.845Z,85.40
2019-01-31T09:26:17.836Z,85.80
2019-01-31T09:29:30.628Z,84.10
2019-01-31T09:32:47.909Z,83.30
2019-01-31T09:36:12.870Z,83.80
2019-01-31T09:39:37.903Z,81.70
2019-01-31T09:42:47.029Z,80.50
2019-01-31T09:46:21.573Z,79.50
2019-01-31T09:49:47.376Z,79.40
2019-01-31T09:53:01.998Z,79.00
2019-01-31T09:56:11.651Z,78.30
2019-01-31T09:59:31.365Z,77.00
2019-01-31T10:02:56.310Z,75.80
2019-01-31T10:06:34.505Z,75.20
2019-01-31T10:10:12.395Z,73.60
2019-01-31T10:13:36.246Z,74.30
2019-01-31T10:17:05.209Z,74.00
2019-01-31T10:20:38.126Z,73.00
2019-01-31T10:23:49.249Z,72.10
2019-01-31T10:27:19.230Z,72.20
2019-01-31T10:30:51.295Z,72.00
2019-01-31T10:34:05.806Z,72.50
2019-01-31T10:37:32.704Z,72.40
2019-01-31T10:40:58.546Z,71.40
2019-01-31T10:44:19.557Z,69.80
2019-01-31T10:47:18.092Z,71.00
2019-01-31T10:50:34.853Z,72.00
2019-01-31T10:53:56.977Z,68.70
2019-01-31T10:57:21.631Z,69.40
2019-01-31T11:00:31.716Z,68.80
2019-01-31T11:03:33.065Z,68.00
2019-01-31T11:07:23.708Z,68.60
2019-01-31T11:10:35.566Z,70.00
2019-01-31T11:14:13.391Z,66.90
2019-01-31T11:17:45.972Z,64.80
2019-01-31T11:21:06.591Z,64.80
2019-01-31T11:24:05.675Z,66.30
2019-01-31T11:27:14.022Z,64.40
2019-01-31T11:30:47.926Z,64.00
2019-01-31T11:34:18.299Z,65.40
2019-01-31T11:37:21.905Z,64.30
2019-01-31T11:40:35.269Z,62.40
2019-01-31T11:44:08.433Z,62.50
2019-01-31T11:47:50.119Z,63.50
2019-01-31T11:51:14.181Z,61.80
2019-01-31T11:54:39.252Z,61.80
2019-01-31T11:57:56.825Z,61.40
2019-01-31T12:00:45.302Z,58.00
2019-01-31T12:03:33.194Z,59.10
2019-01-31T12:06:21.524Z,57.00
2019-01-31T12:09:13.189Z,56.90
2019-01-31T12:12:01.329Z,56.30
2019-01-31T12:14:49.348Z,54.00
2019-01-31T12:17:37.879Z,54.90
2019-01-31T12:20:26.218Z,55.30
2019-01-31T12:23:14.766Z,57.70
2019-01-31T12:26:02.734Z,59.10
2019-01-31T12:28:51.084Z,56.50
2019-01-31T12:31:39.274Z,54.80
2019-01-31T12:34:27.279Z,53.10
2019-01-31T12:37:14.922Z,51.60
2019-01-31T12:40:03.113Z,53.20
2019-01-31T12:42:51.417Z,52.20
2019-01-31T12:45:39.328Z,54.20
2019-01-31T12:48:27.225Z,55.90
2019-01-31T12:51:15.010Z,51.20
2019-01-31T12:54:02.983Z,54.10
2019-01-31T12:56:50.757Z,53.60
2019-01-31T12:59:39.092Z,51.80
2019-01-31T13:02:26.521Z,52.00
2019-01-31T13:05:14.758Z,51.80
2019-01-31T13:08:02.788Z,53.50
2019-01-31T13:10:51.159Z,50.80
2019-01-31T13:13:45.872Z,51.60
2019-01-31T13:16:28.891Z,49.90
2019-01-31T13:19:17.284Z,52.40
2019-01-31T13:22:05.788Z,49.70
2019-01-31T13:24:53.963Z,50.30
2019-01-31T13:27:41.916Z,50.50
2019-01-31T13:30:30.178Z,48.70
2019-01-31T13:33:19.204Z,50.50
2019-01-31T13:36:13.646Z,50.20
2019-01-31T13:39:01.253Z,49.80
2019-01-31T13:41:49.456Z,51.30
2019-01-31T13:44:37.361Z,48.90
2019-01-31T13:47:25.757Z,51.10
2019-01-31T13:50:14.789Z,48.90
2019-01-31T13:53:02.809Z,48.00
2019-01-31T13:55:50.701Z,47.70
2019-01-31T13:58:38.730Z,49.40
2019-01-31T14:01:26.693Z,45.80
2019-01-31T14:04:14.945Z,46.70
2019-01-31T14:07:03.103Z,48.60
2019-01-31T14:09:51.028Z,48.90
2019-01-31T14:12:38.939Z,48.10
2019-01-31T14:15:34.235Z,47.40
2019-01-31T14:18:20.235Z,48.30
2019-01-31T14:21:08.127Z,47.70
2019-01-31T14:23:56.742Z,48.20
2019-01-31T14:26:44.949Z,47.20
2019-01-31T14:29:32.725Z,46.80
2019-01-31T14:32:21.136Z,47.00
2019-01-31T14:35:10.510Z,47.00
2019-01-31T14:37:58.641Z,47.30
2019-01-31T14:40:46.608Z,47.90
2019-01-31T14:43:35.012Z,48.60
2019-01-31T14:46:23.047Z,48.50
2019-01-31T14:49:10.634Z,49.60
2019-01-31T14:51:58.446Z,49.40
2019-01-31T14:54:46.613Z,49.10
2019-01-31T14:57:34.080Z,49.10
2019-01-31T15:00:24.360Z,49.00
2019-01-31T15:03:12.863Z,49.10
2019-01-31T15:06:00.953Z,49.80
2019-01-31T15:08:48.809Z,50.90
2019-01-31T15:11:36.772Z,50.40
2019-01-31T15:14:31.499Z,51.00
2019-01-31T15:17:14.005Z,51.00
2019-01-31T15:20:01.720Z,51.30
2019-01-31T15:22:49.950Z,51.70
2019-01-31T15:25:37.865Z,53.00
2019-01-31T15:28:26.057Z,52.40
2019-01-31T15:31:14.377Z,52.60
2019-01-31T15:34:02.526Z,53.30
2019-01-31T15:36:50.915Z,52.90
2019-01-31T15:39:38.585Z,52.90
2019-01-31T15:42:26.234Z,53.30
2019-01-31T15:45:14.094Z,53.60
2019-01-31T15:48:02.004Z,54.00
2019-01-31T15:50:50.319Z,54.30
2019-01-31T15:53:38.029Z,54.50
2019-01-31T15:56:26.144Z,54.70
2019-01-31T15:59:14.239Z,55.30
2019-01-31T16:02:02.233Z,55.60
2019-01-31T16:04:50.469Z,56.50
2019-01-31T16:07:38.765Z,56.40
2019-01-31T16:10:26.595Z,56.50
2019-01-31T16:13:14.808Z,56.10
2019-01-31T16:16:02.907Z,56.40
2019-01-31T16:18:51.385Z,57.40
2019-01-31T16:21:39.406Z,57.60
2019-01-31T16:24:27.720Z,57.50
2019-01-31T16:27:16.034Z,57.80
2019-01-31T16:30:06.018Z,59.10
2019-01-31T16:32:54.303Z,59.60
2019-01-31T16:35:43.037Z,59.70
2019-01-31T16:38:30.865Z,57.90
2019-01-31T16:41:18.961Z,59.20
2019-01-31T16:44:07.654Z,59.50
2019-01-31T16:46:55.245Z,59.30
2019-01-31T16:49:43.310Z,59.10
2019-01-31T16:52:31.166Z,58.30
2019-01-31T16:55:19.920Z,58.80
2019-01-31T16:58:09.364Z,60.00
2019-01-31T17:00:56.837Z,59.50
2019-01-31T17:03:45.063Z,61.10
2019-01-31T17:06:32.701Z,59.80
2019-01-31T17:09:20.906Z,59.60
2019-01-31T17:12:08.777Z,59.40
2019-01-31T17:14:57.341Z,60.80
2019-01-31T17:17:45.303Z,61.00
2019-01-31T17:20:41.852Z,59.70
2019-01-31T17:23:30.188Z,59.80
2019-01-31T17:26:18.065Z,59.90
2019-01-31T17:29:06.154Z,59.80
2019-01-31T17:31:53.922Z,59.60
2019-01-31T17:34:41.659Z,59.70
2019-01-31T17:37:29.903Z,59.40
2019-01-31T17:40:23.558Z,59.10
2019-01-31T17:43:12.744Z,59.80
2019-01-31T17:46:00.474Z,60.40
2019-01-31T17:48:48.564Z,61.50
2019-01-31T17:51:36.674Z,60.20
2019-01-31T17:54:25.009Z,61.20
2019-01-31T17:57:13.694Z,60.40
2019-01-31T18:00:01.947Z,60.90
2019-01-31T18:02:49.811Z,61.40
2019-01-31T18:05:37.767Z,61.60
2019-01-31T18:08:25.617Z,62.20
2019-01-31T18:11:13.245Z,62.30
2019-01-31T18:14:02.075Z,63.20
2019-01-31T18:16:49.935Z,62.80
2019-01-31T18:19:38.095Z,62.40
2019-01-31T18:22:26.537Z,63.10
2019-01-31T18:25:14.638Z,63.60
2019-01-31T18:28:02.469Z,64.30
2019-01-31T18:30:50.858Z,65.40
2019-01-31T18:33:39.271Z,64.60
2019-01-31T18:36:27.345Z,65.70
2019-01-31T18:39:15.204Z,66.70
2019-01-31T18:42:03.374Z,67.20
2019-01-31T18:44:51.347Z,66.90
2019-01-31T18:47:39.703Z,67.10
2019-01-31T18:50:29.945Z,67.50
2019-01-31T18:53:17.996Z,67.50
2019-01-31T18:56:06.187Z,68.20
2019-01-31T18:58:53.849Z,68.30
2019-01-31T19:01:41.952Z,67.70
2019-01-31T19:04:29.665Z,68.40
2019-01-31T19:07:17.191Z,67.60
2019-01-31T19:10:06.714Z,68.90
2019-01-31T19:12:54.714Z,69.20
2019-01-31T19:15:42.997Z,68.30
2019-01-31T19:18:30.677Z,67.50
2019-01-31T19:21:18.243Z,68.80
2019-01-31T19:24:06.447Z,68.50
2019-01-31T19:26:54.640Z,70.50
2019-01-31T19:29:42.879Z,69.10
2019-01-31T19:32:30.648Z,68.90
2019-01-31T19:35:18.795Z,68.50
2019-01-31T19:38:07.924Z,69.30
2019-01-31T19:40:55.441Z,69.50
2019-01-31T19:43:43.020Z,69.30
2019-01-31T19:46:31.245Z,69.70
2019-01-31T19:49:19.374Z,69.20
2019-01-31T19:52:07.373Z,68.60
2019-01-31T19:54:55.272Z,70.20
2019-01-31T19:57:43.672Z,70.50
2019-01-31T20:00:31.634Z,69.90
2019-01-31T20:03:19.485Z,69.90
2019-01-31T20:06:07.818Z,70.90
2019-01-31T20:08:55.738Z,70.20
2019-01-31T20:11:43.997Z,71.00
2019-01-31T20:14:31.909Z,69.20
2019-01-31T20:17:20.086Z,70.50
2019-01-31T20:20:10.823Z,70.40
2019-01-31T20:22:59.204Z,70.70
2019-01-31T20:25:46.978Z,70.90
2019-01-31T20:28:35.228Z,71.60
2019-01-31T20:31:22.889Z,71.40
2019-01-31T20:34:11.285Z,71.60
2019-01-31T20:36:59.515Z,71.40
2019-01-31T20:39:47.660Z,71.40
2019-01-31T20:42:35.464Z,71.30
2019-01-31T20:45:23.780Z,72.50
2019-01-31T20:48:11.578Z,73.50
2019-01-31T20:50:59.134Z,73.10
2019-01-31T20:53:47.179Z,73.20
2019-01-31T20:56:41.820Z,72.90
2019-01-31T20:59:29.663Z,73.30
2019-01-31T21:02:18.962Z,73.60
2019-01-31T21:05:07.280Z,73.50
2019-01-31T21:07:55.356Z,73.40
2019-01-31T21:10:42.923Z,73.80
2019-01-31T21:13:30.973Z,73.40
2019-01-31T21:16:18.809Z,73.50
2019-01-31T21:19:07.100Z,74.50
2019-01-31T21:21:55.059Z,73.90
2019-01-31T21:24:42.973Z,73.70
2019-01-31T21:27:30.915Z,73.00
2019-01-31T21:30:30.373Z,74.10
2019-01-31T21:33:18.413Z,73.30
2019-01-31T21:36:08.519Z,71.30
2019-01-31T21:38:56.271Z,68.80
2019-01-31T21:41:44.313Z,68.30
2019-01-31T21:44:32.217Z,69.60
2019-01-31T21:47:20.222Z,67.70
2019-01-31T21:50:10.708Z,67.10
2019-01-31T21:52:58.676Z,66.90
2019-01-31T21:55:47.179Z,66.30
2019-01-31T21:58:35.364Z,65.10
2019-01-31T22:01:23.376Z,64.10
2019-01-31T22:04:11.597Z,62.50
2019-01-31T22:06:59.540Z,61.80
2019-01-31T22:09:47.600Z,62.10
2019-01-31T22:12:35.206Z,61.00
2019-01-31T22:15:25.419Z,60.00
2019-01-31T22:18:13.684Z,59.90
2019-01-31T22:21:01.704Z,60.00
2019-01-31T22:23:50.006Z,58.60
2019-01-31T22:26:38.184Z,58.50
2019-01-31T22:29:26.112Z,58.10
2019-01-31T22:32:13.866Z,57.80
2019-01-31T22:35:02.237Z,56.80
2019-01-31T22:37:50.207Z,57.60
2019-01-31T22:40:38.281Z,56.90
2019-01-31T22:43:25.921Z,57.20
2019-01-31T22:46:13.910Z,57.90
2019-01-31T22:49:02.073Z,56.70
2019-01-31T22:51:49.977Z,58.50
2019-01-31T22:54:37.973Z,58.20
2019-01-31T22:57:25.994Z,57.90
2019-01-31T23:01:03.667Z,58.60
2019-01-31T23:03:52.374Z,58.80
2019-01-31T23:06:40.689Z,59.80
2019-01-31T23:09:28.588Z,58.60
2019-01-31T23:12:16.781Z,59.00
2019-01-31T23:15:06.334Z,57.90
2019-01-31T23:17:54.241Z,58.30
2019-01-31T23:20:44.312Z,58.00
2019-01-31T23:23:32.320Z,58.30
2019-01-31T23:26:20.136Z,58.10
2019-01-31T23:29:08.477Z,57.50
2019-01-31T23:31:56.730Z,58.00
2019-01-31T23:34:44.461Z,58.00
2019-01-31T23:37:32.122Z,58.00
2019-01-31T23:40:20.462Z,58.50
2019-01-31T23:43:08.713Z,59.10
2019-01-31T23:45:56.578Z,59.70
2019-01-31T23:48:44.570Z,59.00
2019-01-31T23:51:33.514Z,59.60
2019-01-31T23:54:21.365Z,59.70
2019-01-31T23:57:10.393Z,59.40
2019-01-31T23:59:58.266Z,60.00
